Time;durP1;ratioP1;P1;durP2;ratioP2;P2;SDS_P1;SDS_P2;PMS_P1;PMS_P2;Temp;Humidity;BMP_temperature;BMP_pressure;BME280_temperature;BME280_humidity;BME280_pressure;Samples;Min_cycle;Max_cycle;Signal;HPM_P1;HPM_P2
2022/10/06 00:00:46;;;;;;;4.43;1.60;;;17.80;99.90;;;;;;4983647;28;20431;-67
2022/10/06 00:03:13;;;;;;;3.75;1.65;;;17.80;99.90;;;;;;4969431;28;20929;-67
2022/10/06 00:05:40;;;;;;;5.28;1.65;;;17.80;99.90;;;;;;4985746;28;20528;-67
2022/10/06 00:08:07;;;;;;;4.47;1.67;;;17.80;99.90;;;;;;4985624;28;20455;-68
2022/10/06 00:10:33;;;;;;;3.47;1.60;;;17.80;99.90;;;;;;4985587;28;20479;-67
2022/10/06 00:12:59;;;;;;;4.82;1.60;;;17.80;99.90;;;;;;4984471;28;20427;-68
2022/10/06 00:15:30;;;;;;;4.50;1.80;;;17.80;99.90;;;;;;4946203;28;20419;-68
2022/10/06 00:17:58;;;;;;;5.28;1.77;;;17.80;99.90;;;;;;4970648;28;20416;-68
2022/10/06 00:20:26;;;;;;;4.45;1.77;;;17.80;99.90;;;;;;4968168;28;20466;-68
2022/10/06 00:22:55;;;;;;;6.43;1.75;;;17.80;99.90;;;;;;4969803;28;20428;-67
2022/10/06 00:25:24;;;;;;;4.53;1.90;;;17.80;99.90;;;;;;4967518;28;20511;-68
2022/10/06 00:27:51;;;;;;;5.68;1.85;;;17.70;99.90;;;;;;4969750;28;20410;-68
2022/10/06 00:30:23;;;;;;;3.63;1.80;;;17.70;99.90;;;;;;4966641;28;20428;-68
2022/10/06 00:32:58;;;;;;;5.80;2.15;;;17.70;99.90;;;;;;4967519;28;20423;-67
2022/10/06 00:35:28;;;;;;;5.15;1.90;;;17.80;99.90;;;;;;4960732;28;20416;-67
2022/10/06 00:37:54;;;;;;;4.93;2.10;;;17.70;99.90;;;;;;4965742;28;20414;-67
2022/10/06 00:40:22;;;;;;;4.07;1.80;;;17.70;99.90;;;;;;4965812;28;20414;-68
2022/10/06 00:43:03;;;;;;;4.32;1.80;;;17.70;99.90;;;;;;4965910;28;20409;-68
2022/10/06 00:45:47;;;;;;;4.82;1.90;;;17.70;99.90;;;;;;4958446;28;20434;-67
2022/10/06 00:48:22;;;;;;;3.70;1.90;;;17.80;99.90;;;;;;4950924;28;20474;-68
2022/10/06 00:50:53;;;;;;;3.78;1.92;;;17.80;99.90;;;;;;4959659;28;21101;-68
2022/10/06 00:53:20;;;;;;;5.25;1.90;;;17.90;99.90;;;;;;4956815;28;20488;-68
2022/10/06 00:55:47;;;;;;;5.72;2.00;;;17.90;99.90;;;;;;4960556;28;20968;-68
2022/10/06 00:58:13;;;;;;;5.25;2.10;;;18.00;99.90;;;;;;4968430;28;20416;-68
2022/10/06 01:00:43;;;;;;;4.50;2.10;;;18.00;99.90;;;;;;4970102;28;20412;-68
2022/10/06 01:03:24;;;;;;;5.63;2.30;;;18.00;99.90;;;;;;4966725;28;20422;-68
2022/10/06 01:05:53;;;;;;;6.40;2.55;;;18.00;99.90;;;;;;4967975;28;20428;-68
2022/10/06 01:08:22;;;;;;;7.65;2.50;;;18.00;99.90;;;;;;4952325;28;20411;-68
2022/10/06 01:10:49;;;;;;;6.88;2.20;;;18.00;99.90;;;;;;4984092;28;20801;-68
2022/10/06 01:13:17;;;;;;;5.15;2.25;;;18.00;99.90;;;;;;4964250;28;20770;-68
2022/10/06 01:16:02;;;;;;;6.93;2.38;;;18.00;99.90;;;;;;4961445;28;20447;-67
2022/10/06 01:18:30;;;;;;;4.93;2.23;;;18.00;99.90;;;;;;4965984;28;20438;-68
2022/10/06 01:21:08;;;;;;;5.28;2.50;;;17.90;99.90;;;;;;4966231;28;20424;-68
2022/10/06 01:23:35;;;;;;;5.82;2.33;;;17.90;99.90;;;;;;4963404;28;20435;-67
2022/10/06 01:26:09;;;;;;;5.00;2.30;;;17.90;99.90;;;;;;4968008;28;20411;-68
2022/10/06 01:28:37;;;;;;;6.25;2.40;;;17.90;99.90;;;;;;4955833;28;20421;-68
2022/10/06 01:31:05;;;;;;;6.30;2.60;;;17.90;99.90;;;;;;4965379;28;20404;-68
2022/10/06 01:33:31;;;;;;;6.30;2.20;;;17.90;99.90;;;;;;4963918;28;20743;-67
2022/10/06 01:35:57;;;;;;;6.50;2.25;;;17.90;99.90;;;;;;4964214;28;20946;-67
2022/10/06 01:38:24;;;;;;;6.07;2.33;;;17.80;99.90;;;;;;4968153;28;20510;-68
2022/10/06 01:40:52;;;;;;;6.78;2.65;;;17.80;99.90;;;;;;4969436;28;20415;-68
2022/10/06 01:43:19;;;;;;;7.10;2.78;;;17.80;99.90;;;;;;4968070;28;20412;-68
2022/10/06 01:45:55;;;;;;;5.78;2.40;;;17.80;99.90;;;;;;4953276;28;20420;-68
2022/10/06 01:48:22;;;;;;;8.30;2.55;;;17.80;99.90;;;;;;4959164;28;20430;-68
2022/10/06 01:50:50;;;;;;;7.50;2.30;;;17.70;99.90;;;;;;4960861;28;20972;-67
2022/10/06 01:53:17;;;;;;;5.13;2.30;;;17.70;99.90;;;;;;4967169;28;20416;-68
2022/10/06 01:55:43;;;;;;;7.20;2.58;;;17.70;99.90;;;;;;4958557;28;20436;-68
2022/10/06 01:58:11;;;;;;;6.83;2.50;;;17.60;99.90;;;;;;4980582;28;20424;-68
2022/10/06 02:00:37;;;;;;;6.07;2.30;;;17.60;99.90;;;;;;4968943;28;20415;-68
2022/10/06 02:03:04;;;;;;;5.17;2.33;;;17.60;99.90;;;;;;4949846;28;20484;-68
2022/10/06 02:05:30;;;;;;;4.45;2.22;;;17.60;99.90;;;;;;4968982;28;20559;-68
2022/10/06 02:07:56;;;;;;;6.78;2.30;;;17.60;99.90;;;;;;4969202;28;20427;-68
2022/10/06 02:10:23;;;;;;;5.77;2.60;;;17.60;99.90;;;;;;4968999;28;20436;-68
2022/10/06 02:12:53;;;;;;;5.35;2.40;;;17.60;99.90;;;;;;4967944;28;20427;-68
2022/10/06 02:15:20;;;;;;;6.85;2.58;;;17.60;99.90;;;;;;4967316;28;20432;-68
2022/10/06 02:17:48;;;;;;;7.28;2.50;;;17.60;99.90;;;;;;4967001;28;20434;-68
2022/10/06 02:20:15;;;;;;;9.25;2.45;;;17.50;99.90;;;;;;4982499;28;20412;-68
2022/10/06 02:22:42;;;;;;;6.35;2.53;;;17.50;99.90;;;;;;4971423;28;20458;-68
2022/10/06 02:25:11;;;;;;;6.15;2.50;;;17.50;99.90;;;;;;4972473;28;20528;-67
2022/10/06 02:27:38;;;;;;;4.43;2.20;;;17.50;99.90;;;;;;4972794;28;20781;-68
2022/10/06 02:30:07;;;;;;;5.65;2.58;;;17.50;99.90;;;;;;4972623;28;20473;-68
2022/10/06 02:32:41;;;;;;;8.97;2.50;;;17.40;99.90;;;;;;4977612;28;20424;-68
2022/10/06 02:35:10;;;;;;;6.50;2.70;;;17.40;99.90;;;;;;4962951;28;20871;-67
2022/10/06 02:37:36;;;;;;;7.32;2.22;;;17.40;99.90;;;;;;4980714;28;20804;-68
2022/10/06 02:40:03;;;;;;;6.05;2.50;;;17.40;99.90;;;;;;4951701;29;20483;-68
2022/10/06 02:42:29;;;;;;;5.22;2.47;;;17.40;99.90;;;;;;4958384;28;20802;-68
2022/10/06 02:44:57;;;;;;;8.25;2.58;;;17.40;99.90;;;;;;4971902;28;20901;-68
2022/10/06 02:47:23;;;;;;;6.90;2.60;;;17.40;99.90;;;;;;4969555;28;20439;-68
2022/10/06 02:49:50;;;;;;;5.10;2.40;;;17.30;99.90;;;;;;4962627;28;20665;-68
2022/10/06 02:52:16;;;;;;;6.68;2.60;;;17.30;99.90;;;;;;4970316;28;20423;-68
2022/10/06 02:54:42;;;;;;;6.60;2.80;;;17.30;99.90;;;;;;4971362;28;20498;-68
2022/10/06 02:57:09;;;;;;;5.20;2.35;;;17.30;99.90;;;;;;4969535;28;20455;-68
2022/10/06 02:59:35;;;;;;;7.85;2.60;;;17.30;99.90;;;;;;4964013;28;20427;-68
2022/10/06 03:02:02;;;;;;;5.35;2.50;;;17.30;99.90;;;;;;4971795;28;20491;-67
2022/10/06 03:04:29;;;;;;;6.38;2.42;;;17.30;99.90;;;;;;4954628;28;20407;-68
2022/10/06 03:06:56;;;;;;;6.97;2.60;;;17.30;99.90;;;;;;4986693;28;20431;-68
2022/10/06 03:09:22;;;;;;;6.97;2.60;;;17.30;99.90;;;;;;4953613;28;20412;-68
2022/10/06 03:11:48;;;;;;;5.13;2.70;;;17.30;99.90;;;;;;4968829;28;20452;-68
2022/10/06 03:14:15;;;;;;;7.40;2.80;;;17.30;99.90;;;;;;4963649;28;20439;-68
2022/10/06 03:16:42;;;;;;;5.43;2.45;;;17.20;99.90;;;;;;4966546;28;20442;-68
2022/10/06 03:19:11;;;;;;;6.18;2.70;;;17.20;99.90;;;;;;4953302;28;20513;-68
2022/10/06 03:21:41;;;;;;;6.65;2.90;;;17.20;99.90;;;;;;4968753;28;20493;-68
2022/10/06 03:24:09;;;;;;;7.18;2.78;;;17.20;99.90;;;;;;4963859;28;20427;-68
2022/10/06 03:26:42;;;;;;;8.30;3.13;;;17.20;99.90;;;;;;4970416;28;20495;-68
2022/10/06 03:29:09;;;;;;;7.90;3.28;;;17.20;99.90;;;;;;4968265;28;20422;-67
2022/10/06 03:31:37;;;;;;;8.05;3.10;;;17.20;99.90;;;;;;4965497;28;20474;-67
2022/10/06 03:34:04;;;;;;;7.68;3.00;;;17.20;99.90;;;;;;4970388;28;20482;-67
2022/10/06 03:36:32;;;;;;;6.70;3.13;;;17.20;99.90;;;;;;4967167;28;20416;-68
2022/10/06 03:38:59;;;;;;;9.38;3.40;;;17.20;99.90;;;;;;4961743;28;20425;-68
2022/10/06 03:41:29;;;;;;;7.53;2.90;;;17.30;99.90;;;;;;4968678;28;20511;-68
2022/10/06 03:43:58;;;;;;;7.95;3.00;;;17.30;99.90;;;;;;4969338;28;20829;-68
2022/10/06 03:46:28;;;;;;;11.45;3.35;;;17.30;99.90;;;;;;4967356;28;20528;-68
2022/10/06 03:48:56;;;;;;;7.57;3.35;;;17.30;99.90;;;;;;4970307;28;20510;-68
2022/10/06 03:51:39;;;;;;;9.20;3.28;;;17.40;99.90;;;;;;4961809;28;21064;-68
2022/10/06 03:54:09;;;;;;;9.15;3.58;;;17.40;99.90;;;;;;4985747;28;20490;-67
2022/10/06 03:56:39;;;;;;;10.05;3.72;;;17.40;99.90;;;;;;4967613;28;20439;-67
2022/10/06 03:59:12;;;;;;;8.32;3.35;;;17.40;99.90;;;;;;4983142;28;20414;-67
2022/10/06 04:01:45;;;;;;;7.80;3.60;;;17.40;99.90;;;;;;4969859;28;20500;-68
2022/10/06 04:04:13;;;;;;;7.55;3.20;;;17.40;99.90;;;;;;4961792;28;20423;-68
2022/10/06 04:06:43;;;;;;;7.20;3.15;;;17.40;99.90;;;;;;4963292;28;20436;-68
2022/10/06 04:09:12;;;;;;;6.15;2.90;;;17.40;99.90;;;;;;4967448;28;20543;-68
2022/10/06 04:11:40;;;;;;;8.55;3.45;;;17.40;99.90;;;;;;4965711;28;20416;-68
2022/10/06 04:14:10;;;;;;;6.07;3.10;;;17.50;99.90;;;;;;4968944;28;20427;-68
2022/10/06 04:16:46;;;;;;;7.93;3.27;;;17.50;99.90;;;;;;4967530;28;21155;-67
2022/10/06 04:19:16;;;;;;;7.53;3.58;;;17.40;99.90;;;;;;4968667;28;21177;-68
2022/10/06 04:21:45;;;;;;;9.40;3.17;;;17.50;99.90;;;;;;4967534;28;20539;-68
2022/10/06 04:24:12;;;;;;;6.75;3.40;;;17.50;99.90;;;;;;4962316;28;20420;-68
2022/10/06 04:26:45;;;;;;;8.80;3.50;;;17.50;99.90;;;;;;4958560;28;20594;-68
2022/10/06 04:29:13;;;;;;;6.90;3.10;;;17.50;99.90;;;;;;4967535;28;20562;-68
2022/10/06 04:31:41;;;;;;;6.90;3.00;;;17.50;99.90;;;;;;4977536;28;20429;-68
2022/10/06 04:34:13;;;;;;;6.10;2.97;;;17.50;99.90;;;;;;4964357;28;20432;-68
2022/10/06 04:36:43;;;;;;;7.22;3.22;;;17.50;99.90;;;;;;4948351;28;20457;-68
2022/10/06 04:39:11;;;;;;;6.90;3.30;;;17.50;99.90;;;;;;4969625;28;20416;-68
2022/10/06 04:41:41;;;;;;;7.60;3.20;;;17.50;99.90;;;;;;4970565;28;20411;-68
2022/10/06 04:44:09;;;;;;;7.82;2.95;;;17.50;99.90;;;;;;4968913;28;20503;-68
2022/10/06 04:46:35;;;;;;;6.45;2.92;;;17.50;99.90;;;;;;4969532;28;20515;-68
2022/10/06 04:49:02;;;;;;;7.07;3.00;;;17.50;99.90;;;;;;4966843;28;20496;-67
2022/10/06 04:51:29;;;;;;;7.45;2.90;;;17.40;99.90;;;;;;4966126;28;20428;-68
2022/10/06 04:53:56;;;;;;;6.65;3.00;;;17.40;99.90;;;;;;4960868;28;20459;-68
2022/10/06 04:56:28;;;;;;;9.35;2.92;;;17.40;99.90;;;;;;4968504;28;20430;-68
2022/10/06 04:58:56;;;;;;;6.65;3.13;;;17.40;99.90;;;;;;4951169;28;20420;-67
2022/10/06 05:01:27;;;;;;;9.65;3.00;;;17.40;99.90;;;;;;4958147;28;21412;-68
2022/10/06 05:03:58;;;;;;;6.25;2.90;;;17.50;99.90;;;;;;4966395;28;20424;-68
2022/10/06 05:06:33;;;;;;;5.32;2.88;;;17.50;99.90;;;;;;4969769;28;21050;-68
2022/10/06 05:09:14;;;;;;;6.57;2.65;;;17.60;99.90;;;;;;4961920;28;20446;-68
2022/10/06 05:11:40;;;;;;;7.40;3.07;;;17.60;99.90;;;;;;4967428;28;20462;-68
2022/10/06 05:14:07;;;;;;;5.50;2.80;;;17.70;99.90;;;;;;4968021;28;20462;-68
2022/10/06 05:16:36;;;;;;;6.13;2.85;;;17.80;99.90;;;;;;4963176;28;20418;-68
2022/10/06 05:19:03;;;;;;;5.32;2.80;;;17.80;99.90;;;;;;4966522;28;20403;-68
2022/10/06 05:21:31;;;;;;;7.60;3.20;;;18.00;99.90;;;;;;4949133;29;20872;-68
2022/10/06 05:23:59;;;;;;;5.88;3.00;;;18.00;99.90;;;;;;4953871;28;20440;-68
2022/10/06 05:26:30;;;;;;;7.93;3.15;;;18.10;99.90;;;;;;4963888;28;20420;-68
2022/10/06 05:28:57;;;;;;;6.18;2.80;;;18.10;99.90;;;;;;4960450;28;20839;-67
2022/10/06 05:31:27;;;;;;;5.43;2.72;;;18.20;99.90;;;;;;4956192;28;20412;-67
2022/10/06 05:33:56;;;;;;;5.95;2.80;;;18.20;99.90;;;;;;4967627;28;20435;-67
2022/10/06 05:36:29;;;;;;;6.63;2.55;;;18.20;99.90;;;;;;4959910;28;20412;-67
2022/10/06 05:38:58;;;;;;;5.10;2.50;;;18.30;99.90;;;;;;4969418;28;20408;-67
2022/10/06 05:41:32;;;;;;;6.30;2.45;;;18.30;99.90;;;;;;4966000;28;20414;-68
2022/10/06 05:43:59;;;;;;;12.10;3.05;;;18.40;99.90;;;;;;4952128;28;21275;-67
2022/10/06 05:46:31;;;;;;;22.73;3.15;;;18.40;99.90;;;;;;4964894;28;21191;-67
2022/10/06 05:49:05;;;;;;;7.47;2.50;;;18.50;99.90;;;;;;4967759;28;20493;-67
2022/10/06 05:51:34;;;;;;;8.30;2.40;;;18.50;99.90;;;;;;4971773;28;20416;-66
2022/10/06 05:54:01;;;;;;;10.80;2.45;;;18.60;99.90;;;;;;4969224;28;20497;-67
2022/10/06 05:56:37;;;;;;;8.68;2.58;;;18.70;99.90;;;;;;4966593;28;20785;-66
2022/10/06 05:59:05;;;;;;;15.93;2.58;;;18.70;99.90;;;;;;4972294;28;20451;-66
2022/10/06 06:01:38;;;;;;;31.63;3.70;;;18.80;99.90;;;;;;4968751;28;20461;-66
2022/10/06 06:04:10;;;;;;;22.55;3.00;;;18.80;99.90;;;;;;4970374;28;20473;-65
2022/10/06 06:06:43;;;;;;;4.68;2.10;;;18.90;99.90;;;;;;4970320;28;20412;-65
2022/10/06 06:09:20;;;;;;;10.52;2.30;;;18.90;99.90;;;;;;4960675;28;20421;-66
2022/10/06 06:11:51;;;;;;;5.80;2.20;;;19.00;99.90;;;;;;4956433;28;20419;-66
2022/10/06 06:15:59;;;;;;;6.88;2.20;;;19.10;99.90;;;;;;4985900;28;20555;-66
2022/10/06 06:17:10;;;;;;;6.97;2.40;;;19.10;99.90;;;;;;4970862;28;20525;-66
2022/10/06 06:19:36;;;;;;;7.07;2.15;;;19.20;99.90;;;;;;4957157;28;20406;-66
2022/10/06 06:22:02;;;;;;;7.77;2.27;;;19.20;99.90;;;;;;4953601;28;21012;-66
2022/10/06 06:24:28;;;;;;;15.38;2.40;;;19.30;99.90;;;;;;4952451;28;20413;-66
2022/10/06 06:26:55;;;;;;;12.20;2.55;;;19.40;99.90;;;;;;4967285;28;20424;-66
2022/10/06 06:29:22;;;;;;;11.82;2.40;;;19.50;99.90;;;;;;4967540;28;20416;-66
2022/10/06 06:31:49;;;;;;;6.97;2.00;;;19.50;99.90;;;;;;4970049;28;21000;-66
2022/10/06 06:34:16;;;;;;;41.20;4.05;;;19.60;99.90;;;;;;4960992;28;20430;-66
2022/10/06 06:36:45;;;;;;;17.80;2.33;;;19.60;99.90;;;;;;4969343;28;21054;-66
2022/10/06 06:39:14;;;;;;;11.70;2.33;;;19.70;99.90;;;;;;4970629;28;20499;-66
2022/10/06 06:41:44;;;;;;;8.70;2.15;;;19.80;99.90;;;;;;4972155;28;20475;-66
2022/10/06 06:44:12;;;;;;;110.93;5.03;;;19.80;99.90;;;;;;4962927;28;20438;-66
2022/10/06 06:46:42;;;;;;;7.65;1.98;;;19.80;99.90;;;;;;4961993;28;20456;-66
2022/10/06 06:49:10;;;;;;;6.40;2.10;;;20.00;99.90;;;;;;4983728;28;20427;-66
2022/10/06 06:51:43;;;;;;;7.78;1.90;;;20.00;99.90;;;;;;4972213;28;20422;-66
2022/10/06 06:54:11;;;;;;;8.30;2.20;;;20.10;99.90;;;;;;4969383;28;20436;-66
2022/10/06 06:56:38;;;;;;;6.47;2.00;;;20.10;99.90;;;;;;4967539;28;20727;-67
2022/10/06 06:59:10;;;;;;;5.80;2.13;;;20.20;99.90;;;;;;4959111;28;20422;-66
2022/10/06 07:01:45;;;;;;;6.25;2.10;;;20.30;99.90;;;;;;4962860;28;20453;-66
2022/10/06 07:04:15;;;;;;;6.10;2.00;;;20.40;99.90;;;;;;4963731;28;20532;-67
2022/10/06 07:06:56;;;;;;;5.35;1.85;;;20.40;99.90;;;;;;4961423;28;20421;-66
2022/10/06 07:09:25;;;;;;;8.35;2.20;;;20.40;99.90;;;;;;4969058;28;20424;-67
2022/10/06 07:11:51;;;;;;;7.47;2.10;;;20.50;99.90;;;;;;4963766;28;20427;-66
2022/10/06 07:14:17;;;;;;;36.40;2.72;;;20.60;99.90;;;;;;4968543;28;21144;-66
2022/10/06 07:25:25;;;;;;;43.03;3.85;;;20.90;99.90;;;;;;4965584;28;20427;-67
2022/10/06 07:27:53;;;;;;;13.60;2.28;;;21.00;99.90;;;;;;4947671;28;21765;-67
2022/10/06 07:30:27;;;;;;;74.60;6.03;;;21.10;99.90;;;;;;4958873;28;20482;-67
2022/10/06 07:32:54;;;;;;;90.35;7.03;;;21.10;99.90;;;;;;4969018;28;20814;-67
2022/10/06 07:35:23;;;;;;;107.50;7.43;;;21.20;99.90;;;;;;4948438;28;20558;-67
2022/10/06 07:37:54;;;;;;;371.85;17.27;;;21.20;99.90;;;;;;4962495;28;20420;-67
2022/10/06 07:40:21;;;;;;;56.25;4.95;;;21.30;99.90;;;;;;4956140;28;20467;-67
2022/10/06 07:42:47;;;;;;;90.25;6.30;;;21.70;99.90;;;;;;4968411;28;20907;-68
2022/10/06 07:48:01;;;;;;;22.83;2.55;;;22.00;99.90;;;;;;4970138;28;20548;-67
2022/10/06 07:50:28;;;;;;;54.00;4.95;;;21.90;99.90;;;;;;4972087;28;20193;-67
2022/10/06 07:52:54;;;;;;;7.18;1.98;;;21.90;99.90;;;;;;4963913;28;20191;-68
2022/10/06 07:55:25;;;;;;;82.72;6.50;;;21.90;99.90;;;;;;4969033;28;20216;-68
2022/10/06 07:57:51;;;;;;;42.87;3.87;;;22.00;99.90;;;;;;4962467;28;20204;-68
2022/10/06 08:00:21;;;;;;;27.75;3.75;;;22.00;99.90;;;;;;4960547;28;20194;-68
2022/10/06 08:02:48;;;;;;;32.63;2.63;;;22.10;99.90;;;;;;4953120;28;20209;-68
2022/10/06 08:05:15;;;;;;;8.85;1.92;;;22.20;99.90;;;;;;4964928;28;20253;-67
2022/10/06 08:07:41;;;;;;;26.83;2.93;;;22.40;99.90;;;;;;4968382;28;20229;-67
2022/10/06 08:10:08;;;;;;;18.10;2.63;;;22.50;99.90;;;;;;4965404;28;20580;-67
2022/10/06 08:12:39;;;;;;;9.35;2.05;;;22.70;99.90;;;;;;4979689;28;20195;-67
2022/10/06 08:15:11;;;;;;;3.95;1.80;;;22.90;99.90;;;;;;4967343;28;20222;-67
2022/10/06 08:17:38;;;;;;;8.80;2.13;;;22.90;99.90;;;;;;4969812;28;20194;-68
2022/10/06 08:20:15;;;;;;;8.57;1.63;;;22.90;99.90;;;;;;4947975;28;20197;-69
2022/10/06 08:22:42;;;;;;;5.50;2.20;;;22.90;99.90;;;;;;4952114;28;20189;-67
2022/10/06 08:25:09;;;;;;;6.93;2.10;;;23.00;99.90;;;;;;4966191;28;20551;-67
2022/10/06 08:27:37;;;;;;;9.47;1.90;;;23.00;99.90;;;;;;4967890;28;20194;-67
2022/10/06 08:30:06;;;;;;;4.97;1.98;;;23.20;99.90;;;;;;4956349;28;20270;-67
2022/10/06 08:32:33;;;;;;;4.33;1.73;;;23.10;99.90;;;;;;4977667;28;20600;-67
2022/10/06 08:34:59;;;;;;;10.18;2.60;;;23.10;99.90;;;;;;4958299;28;20223;-67
2022/10/06 08:37:26;;;;;;;8.52;2.35;;;23.20;99.90;;;;;;4959774;28;20187;-68
2022/10/06 08:39:54;;;;;;;8.63;1.83;;;23.20;99.90;;;;;;4968430;28;20268;-68
2022/10/06 08:42:43;;;;;;;7.32;1.80;;;23.30;99.90;;;;;;4964743;28;20265;-68
2022/10/06 08:45:38;;;;;;;9.77;2.15;;;23.30;99.90;;;;;;4966482;28;20280;-66
2022/10/06 08:48:28;;;;;;;7.13;2.10;;;23.40;99.90;;;;;;4970403;28;20556;-67
2022/10/06 08:52:03;;;;;;;8.45;2.47;;;23.40;99.90;;;;;;4966805;28;20205;-67
2022/10/06 08:54:47;;;;;;;7.30;2.38;;;23.40;99.90;;;;;;4953622;28;20209;-67
2022/10/06 08:57:36;;;;;;;9.57;2.67;;;23.50;99.90;;;;;;4972999;28;20189;-68
2022/10/06 09:00:31;;;;;;;11.90;2.25;;;23.60;99.90;;;;;;4968760;28;20198;-67
2022/10/06 09:03:00;;;;;;;9.55;2.05;;;23.60;99.90;;;;;;4963523;28;20178;-67
2022/10/06 09:05:29;;;;;;;14.82;2.30;;;23.80;99.90;;;;;;4966036;28;20201;-67
2022/10/06 09:08:18;;;;;;;7.82;2.13;;;23.80;99.90;;;;;;4964946;28;20210;-68
2022/10/06 09:11:21;;;;;;;5.30;2.08;;;23.80;99.90;;;;;;4963613;28;20683;-68
2022/10/06 09:14:21;;;;;;;4.45;2.30;;;24.00;99.90;;;;;;4978275;28;20202;-68
2022/10/06 09:16:56;;;;;;;10.48;2.90;;;24.00;99.90;;;;;;4965861;28;20344;-68
2022/10/06 09:19:42;;;;;;;5.00;2.00;;;24.20;99.90;;;;;;4951657;28;20667;-68
2022/10/06 09:22:19;;;;;;;5.43;2.10;;;24.30;99.90;;;;;;4953155;28;20201;-68
2022/10/06 09:24:49;;;;;;;7.00;2.47;;;24.40;99.90;;;;;;4959093;28;20198;-68
2022/10/06 09:27:32;;;;;;;11.23;2.20;;;24.50;99.90;;;;;;4964454;28;20221;-68
2022/10/06 09:30:00;;;;;;;6.57;2.00;;;24.70;99.90;;;;;;4965301;28;20226;-68
2022/10/06 09:32:30;;;;;;;9.57;2.15;;;24.80;99.90;;;;;;4974077;28;20193;-67
2022/10/06 09:35:03;;;;;;;8.05;2.45;;;24.80;99.90;;;;;;4980566;28;20210;-67
2022/10/06 09:38:03;;;;;;;8.38;2.65;;;24.90;99.90;;;;;;4963788;28;20186;-68
2022/10/06 09:40:50;;;;;;;6.65;2.25;;;24.70;99.90;;;;;;4951401;28;20174;-68
2022/10/06 09:43:24;;;;;;;4.45;2.40;;;24.90;99.90;;;;;;4974148;28;20186;-69
2022/10/06 09:45:53;;;;;;;6.65;2.42;;;25.00;99.90;;;;;;4963135;28;20210;-69
2022/10/06 09:48:25;;;;;;;11.43;2.55;;;24.90;99.90;;;;;;4959302;28;20512;-69
2022/10/06 09:51:17;;;;;;;9.48;2.20;;;25.10;99.90;;;;;;4937417;28;20191;-69
2022/10/06 09:54:14;;;;;;;7.53;2.22;;;25.40;99.90;;;;;;4956749;28;20420;-69
2022/10/06 09:56:45;;;;;;;8.15;2.33;;;25.40;99.90;;;;;;4963553;28;20417;-68
2022/10/06 09:59:36;;;;;;;11.27;2.50;;;25.40;99.90;;;;;;4957718;28;20414;-69
2022/10/06 10:02:03;;;;;;;9.20;2.30;;;25.60;99.90;;;;;;4941669;28;20418;-70
2022/10/06 10:04:36;;;;;;;5.82;2.20;;;25.80;99.90;;;;;;4939409;28;20933;-68
2022/10/06 10:07:35;;;;;;;7.32;2.53;;;25.70;99.90;;;;;;4939049;29;20419;-68
2022/10/06 10:10:23;;;;;;;8.30;2.38;;;26.00;99.90;;;;;;4930077;28;20445;-69
2022/10/06 10:12:59;;;;;;;9.38;2.38;;;25.90;99.90;;;;;;4938792;29;20520;-69
2022/10/06 10:15:53;;;;;;;181.13;8.52;;;26.00;99.90;;;;;;4939794;28;20461;-68
2022/10/06 10:18:26;;;;;;;7.70;2.65;;;26.30;99.90;;;;;;4937735;29;21051;-68
2022/10/06 10:21:09;;;;;;;7.53;2.42;;;26.30;99.90;;;;;;4946014;29;20427;-69
2022/10/06 10:23:54;;;;;;;8.48;2.00;;;26.60;99.90;;;;;;4943934;29;20426;-69
2022/10/06 10:26:44;;;;;;;6.07;2.00;;;26.80;99.90;;;;;;4947013;28;20417;-69
2022/10/06 10:29:40;;;;;;;6.72;2.30;;;27.00;99.90;;;;;;4944335;29;20551;-69
2022/10/06 10:33:00;;;;;;;7.45;2.13;;;27.00;99.90;;;;;;4943028;29;20453;-68
2022/10/06 10:35:44;;;;;;;6.25;2.08;;;26.90;99.90;;;;;;4943259;28;20425;-69
2022/10/06 10:38:23;;;;;;;6.68;2.10;;;26.90;99.90;;;;;;4960875;28;20449;-70
2022/10/06 10:40:59;;;;;;;6.53;2.20;;;27.00;99.90;;;;;;4945527;29;20514;-69
2022/10/06 10:43:38;;;;;;;10.85;1.92;;;26.90;99.90;;;;;;4945899;29;20492;-68
2022/10/06 10:46:26;;;;;;;10.95;2.33;;;27.10;99.90;;;;;;4947994;29;20433;-68
2022/10/06 10:49:18;;;;;;;11.20;2.35;;;27.00;99.90;;;;;;4945993;28;20438;-67
2022/10/06 10:51:59;;;;;;;7.28;2.30;;;26.90;99.90;;;;;;4948643;28;20504;-68
2022/10/06 10:54:40;;;;;;;8.73;2.20;;;26.70;99.90;;;;;;4945415;29;20437;-69
2022/10/06 10:57:15;;;;;;;6.93;2.22;;;26.30;99.90;;;;;;4943633;29;20413;-68
2022/10/06 11:00:06;;;;;;;5.18;2.03;;;26.30;99.90;;;;;;4943618;28;20970;-68
2022/10/06 11:02:34;;;;;;;9.20;2.40;;;26.30;99.90;;;;;;4950543;28;20495;-69
2022/10/06 11:05:29;;;;;;;7.68;2.40;;;26.30;99.90;;;;;;4937438;28;20931;-69
2022/10/06 11:08:37;;;;;;;37.22;3.50;;;26.20;99.90;;;;;;4946583;28;20804;-69
2022/10/06 11:11:40;;;;;;;11.27;2.20;;;26.20;99.90;;;;;;4971972;28;20511;-70
2022/10/06 11:14:30;;;;;;;17.20;2.65;;;26.10;99.90;;;;;;4942928;29;20449;-69
2022/10/06 11:17:14;;;;;;;10.90;2.50;;;26.20;99.90;;;;;;4942617;29;20430;-69
2022/10/06 11:20:22;;;;;;;11.48;2.33;;;26.20;99.90;;;;;;4943435;28;20445;-69
2022/10/06 11:23:29;;;;;;;7.70;2.20;;;26.20;99.90;;;;;;4957686;28;20440;-69
2022/10/06 11:26:44;;;;;;;5.93;2.20;;;26.10;99.90;;;;;;4960293;28;20500;-69
2022/10/06 11:29:40;;;;;;;9.63;2.40;;;26.00;99.90;;;;;;4948198;28;20545;-69
2022/10/06 11:32:39;;;;;;;8.88;2.13;;;26.00;99.90;;;;;;4946405;28;20422;-69
2022/10/06 11:35:26;;;;;;;8.63;2.00;;;26.10;99.90;;;;;;4940024;29;20432;-69
2022/10/06 11:38:19;;;;;;;7.55;2.35;;;26.00;99.90;;;;;;4950178;28;20457;-68
2022/10/06 11:41:23;;;;;;;7.13;2.08;;;26.00;99.90;;;;;;4951707;28;20422;-69
2022/10/06 11:44:12;;;;;;;12.43;2.50;;;26.00;99.90;;;;;;4952061;28;20453;-69
2022/10/06 11:47:46;;;;;;;7.40;2.20;;;25.90;99.90;;;;;;4948015;29;20425;-68
2022/10/06 11:50:35;;;;;;;11.90;2.33;;;25.90;99.90;;;;;;4949067;29;20515;-68
2022/10/06 11:53:04;;;;;;;9.30;2.30;;;25.70;99.90;;;;;;4964917;28;20458;-67
2022/10/06 11:55:31;;;;;;;11.35;2.30;;;25.60;99.90;;;;;;4963950;28;20870;-67
2022/10/06 11:58:15;;;;;;;6.00;2.30;;;25.70;99.90;;;;;;4947851;28;20962;-66
2022/10/06 12:00:45;;;;;;;5.30;2.00;;;25.70;99.90;;;;;;4943256;29;20415;-66
2022/10/06 12:03:43;;;;;;;6.50;2.05;;;25.70;99.90;;;;;;4961514;28;20429;-66
2022/10/06 12:09:25;;;;;;;7.00;2.20;;;25.80;99.90;;;;;;4941538;29;20901;-67
2022/10/06 12:11:55;;;;;;;7.05;2.20;;;25.80;99.90;;;;;;4945343;28;21046;-68
2022/10/06 12:14:47;;;;;;;6.22;2.05;;;25.70;99.90;;;;;;4947906;28;20819;-69
2022/10/06 12:17:44;;;;;;;5.25;1.88;;;25.50;99.90;;;;;;4947334;29;20996;-67
2022/10/06 12:20:46;;;;;;;11.10;2.22;;;25.50;99.90;;;;;;4949377;29;20452;-68
2022/10/06 12:23:52;;;;;;;6.78;2.17;;;25.50;99.90;;;;;;4946050;28;20949;-68
2022/10/06 12:26:56;;;;;;;10.68;2.40;;;25.40;99.90;;;;;;4946557;29;20426;-68
2022/10/06 12:29:48;;;;;;;11.43;2.73;;;25.50;99.90;;;;;;4949962;29;21131;-68
2022/10/06 12:32:23;;;;;;;10.23;2.57;;;25.50;99.90;;;;;;4927243;28;20419;-68
2022/10/06 12:34:58;;;;;;;12.30;2.70;;;25.50;99.90;;;;;;4946358;29;20468;-68
2022/10/06 12:37:44;;;;;;;6.03;2.20;;;25.50;99.90;;;;;;4939087;29;21022;-68
2022/10/06 12:40:45;;;;;;;6.05;2.20;;;25.40;99.90;;;;;;4942535;28;20734;-68
2022/10/06 12:43:17;;;;;;;9.10;2.35;;;25.40;99.90;;;;;;4940263;28;20429;-68
2022/10/06 12:46:33;;;;;;;5.90;2.00;;;25.30;99.90;;;;;;4943078;29;20444;-68
2022/10/06 12:49:35;;;;;;;8.57;2.17;;;25.20;99.90;;;;;;4948029;29;20429;-68
2022/10/06 12:52:22;;;;;;;7.85;2.15;;;25.20;99.90;;;;;;4940002;29;20864;-68
2022/10/06 12:55:31;;;;;;;4.37;1.70;;;25.30;99.90;;;;;;4941333;28;20433;-68
2022/10/06 12:58:00;;;;;;;6.20;2.00;;;25.20;99.90;;;;;;4947139;29;20934;-68
2022/10/06 13:00:38;;;;;;;4.28;1.90;;;25.20;99.90;;;;;;4947624;28;20461;-68
2022/10/06 13:03:14;;;;;;;6.60;2.30;;;25.20;99.90;;;;;;4930781;28;20441;-68
2022/10/06 13:05:49;;;;;;;7.78;2.13;;;25.20;99.90;;;;;;4939564;28;21006;-68
2022/10/06 13:08:30;;;;;;;7.33;2.10;;;25.30;99.90;;;;;;4940320;28;20432;-68
2022/10/06 13:11:22;;;;;;;10.27;1.92;;;25.30;99.90;;;;;;4940833;29;20425;-68
2022/10/06 13:13:57;;;;;;;4.93;1.90;;;25.20;99.90;;;;;;4943507;29;20450;-68
2022/10/06 13:16:40;;;;;;;8.27;2.13;;;25.10;99.90;;;;;;4939993;29;20436;-68
2022/10/06 13:19:26;;;;;;;7.32;2.30;;;25.00;99.90;;;;;;4939067;28;20414;-68
2022/10/06 13:21:53;;;;;;;6.88;2.00;;;24.90;99.90;;;;;;4943178;28;20430;-68
2022/10/06 13:24:25;;;;;;;7.60;2.08;;;25.00;99.90;;;;;;4946799;28;20409;-68
2022/10/06 13:26:53;;;;;;;5.80;2.10;;;24.90;99.90;;;;;;4958953;28;20418;-68
2022/10/06 13:29:24;;;;;;;4.82;1.98;;;24.80;99.90;;;;;;4944916;28;20776;-68
2022/10/06 13:31:55;;;;;;;6.50;2.00;;;24.80;99.90;;;;;;4945256;28;20449;-68
2022/10/06 13:34:41;;;;;;;4.18;1.83;;;24.70;99.90;;;;;;4942252;28;21006;-68
2022/10/06 13:37:13;;;;;;;5.82;2.08;;;24.60;99.90;;;;;;4943192;28;20430;-67
2022/10/06 13:39:40;;;;;;;4.93;1.80;;;24.70;99.90;;;;;;4961163;28;21190;-68